Time;durP1;ratioP1;P1;durP2;ratioP2;P2;SDS_P1;SDS_P2;PMS_P1;PMS_P2;Temp;Humidity;BMP_temperature;BMP_pressure;BME280_temperature;BME280_humidity;BME280_pressure;Samples;Min_cycle;Max_cycle;Signal;HPM_P1;HPM_P2
2023/05/08 00:00:45;;;;;;;18.10;16.50;;;;;;;14.63;100.00;101941.19;5037970;28;20018;-84
2023/05/08 00:03:10;;;;;;;17.53;15.87;;;;;;;14.65;100.00;101949.94;5050895;28;20068;-84
2023/05/08 00:05:35;;;;;;;20.50;16.73;;;;;;;14.63;100.00;101943.88;5047749;28;20980;-84
2023/05/08 00:08:01;;;;;;;18.20;16.52;;;;;;;14.63;100.00;101957.25;5031454;28;20079;-84
2023/05/08 00:10:27;;;;;;;17.60;15.75;;;;;;;14.64;100.00;101962.47;5035877;28;20112;-84
2023/05/08 00:12:53;;;;;;;18.73;17.10;;;;;;;14.59;100.00;101952.13;5032896;28;20018;-84
2023/05/08 00:15:18;;;;;;;16.88;15.48;;;;;;;14.59;100.00;101957.47;5033979;28;20021;-84
2023/05/08 00:17:43;;;;;;;18.58;16.85;;;;;;;14.60;100.00;101961.00;5028556;28;20084;-84
2023/05/08 00:20:09;;;;;;;18.05;16.35;;;;;;;14.63;100.00;101957.25;5029167;28;20017;-84
2023/05/08 00:22:35;;;;;;;18.88;16.70;;;;;;;14.59;100.00;101952.13;5034267;28;20092;-84
2023/05/08 00:25:00;;;;;;;19.05;16.25;;;;;;;14.61;100.00;101958.19;5034861;28;20472;-84
2023/05/08 00:27:25;;;;;;;18.67;16.95;;;;;;;14.61;100.00;101944.81;5026334;28;20163;-84
2023/05/08 00:29:50;;;;;;;18.55;16.80;;;;;;;14.57;100.00;101948.69;5019309;28;20055;-84
2023/05/08 00:32:16;;;;;;;18.38;16.63;;;;;;;14.57;100.00;101954.03;5025883;28;20221;-84
2023/05/08 00:34:41;;;;;;;18.10;16.25;;;;;;;14.56;100.00;101952.31;5033733;28;20481;-84
2023/05/08 00:37:06;;;;;;;18.42;16.77;;;;;;;14.54;100.00;101948.06;5033898;28;20504;-84
2023/05/08 00:39:32;;;;;;;19.23;17.35;;;;;;;14.55;100.00;101955.94;5032569;28;20041;-84
2023/05/08 00:41:57;;;;;;;18.83;17.08;;;;;;;14.51;100.00;101946.47;5026829;28;20022;-84
2023/05/08 00:44:22;;;;;;;18.08;16.42;;;;;;;14.56;100.00;101956.81;5030269;28;20120;-84
2023/05/08 00:46:48;;;;;;;20.10;17.13;;;;;;;14.52;100.00;101953.53;5026001;28;20037;-84
2023/05/08 00:49:14;;;;;;;19.13;17.33;;;;;;;14.52;100.00;101950.84;5027342;28;20033;-84
2023/05/08 00:51:45;;;;;;;18.98;17.27;;;;;;;14.51;100.00;101954.50;5025716;28;20045;-84
2023/05/08 00:54:10;;;;;;;18.45;16.75;;;;;;;14.47;100.00;101947.69;5029225;28;20384;-84
2023/05/08 00:56:37;;;;;;;19.73;17.92;;;;;;;14.47;100.00;101946.81;5021982;28;20068;-84
2023/05/08 00:59:07;;;;;;;21.08;18.90;;;;;;;14.43;100.00;101936.34;5021721;28;20029;-84
2023/05/08 01:01:35;;;;;;;19.15;17.38;;;;;;;14.47;100.00;101937.00;5023329;28;20448;-84
2023/05/08 01:04:02;;;;;;;20.05;18.15;;;;;;;14.48;100.00;101936.00;5024678;28;20467;-84
2023/05/08 01:06:27;;;;;;;19.90;17.90;;;;;;;14.43;100.00;101932.84;5024375;28;20079;-84
2023/05/08 01:08:53;;;;;;;20.67;18.70;;;;;;;14.42;100.00;101942.69;5033588;28;20418;-84
2023/05/08 01:11:26;;;;;;;18.92;17.23;;;;;;;14.47;100.00;101942.34;5032515;28;20037;-84
2023/05/08 01:14:11;;;;;;;20.63;18.73;;;;;;;14.46;100.00;101950.47;5029575;28;20467;-84
2023/05/08 01:17:07;;;;;;;20.27;18.17;;;;;;;14.47;100.00;101947.69;5026042;28;20033;-84
2023/05/08 01:20:03;;;;;;;21.30;19.50;;;;;;;14.49;100.00;101947.53;5024239;28;20029;-84
2023/05/08 01:22:35;;;;;;;19.65;18.02;;;;;;;14.45;100.00;101930.88;5020406;28;20022;-84
2023/05/08 01:25:43;;;;;;;20.05;18.25;;;;;;;14.47;100.00;101939.66;5027579;28;20095;-84
2023/05/08 01:28:14;;;;;;;21.87;19.73;;;;;;;14.42;100.00;101932.00;5031369;28;20040;-84
2023/05/08 01:30:54;;;;;;;21.38;19.48;;;;;;;14.41;100.00;101937.44;5024626;28;20025;-84
2023/05/08 01:33:25;;;;;;;20.65;18.75;;;;;;;14.35;100.00;101930.72;5019332;28;20083;-84
2023/05/08 01:35:59;;;;;;;18.77;16.98;;;;;;;14.40;100.00;101939.25;5032468;28;20101;-84
2023/05/08 01:38:51;;;;;;;20.38;17.67;;;;;;;14.39;100.00;101937.56;5032293;28;20079;-84
2023/05/08 01:41:27;;;;;;;21.38;19.23;;;;;;;14.35;100.00;101935.22;5029363;28;20025;-84
2023/05/08 01:44:20;;;;;;;20.65;18.80;;;;;;;14.39;100.00;101945.56;5031299;28;20037;-83
2023/05/08 01:46:48;;;;;;;20.88;18.90;;;;;;;14.33;100.00;101934.50;5014031;28;20119;-84
2023/05/08 01:49:25;;;;;;;20.63;18.48;;;;;;;14.37;100.00;101935.97;5015693;28;20034;-84
2023/05/08 01:52:01;;;;;;;21.75;19.50;;;;;;;14.35;100.00;101936.06;5022975;28;20080;-84
2023/05/08 01:54:29;;;;;;;21.90;19.52;;;;;;;14.35;100.00;101933.41;5031490;28;20029;-84
2023/05/08 01:56:58;;;;;;;21.40;19.33;;;;;;;14.29;100.00;101933.88;5025780;28;20130;-84
2023/05/08 01:59:27;;;;;;;22.25;20.15;;;;;;;14.18;100.00;101910.63;5027104;28;20032;-84
2023/05/08 02:01:55;;;;;;;20.92;18.85;;;;;;;14.30;100.00;101930.22;5025797;28;20021;-84
2023/05/08 02:04:22;;;;;;;22.25;20.20;;;;;;;14.28;100.00;101937.50;5016630;28;20453;-84
2023/05/08 02:06:50;;;;;;;20.33;18.42;;;;;;;14.30;100.00;101940.06;5025083;28;20052;-84
2023/05/08 02:09:16;;;;;;;21.90;19.80;;;;;;;14.31;100.00;101939.97;5032242;28;20049;-84
2023/05/08 02:11:43;;;;;;;22.02;19.92;;;;;;;14.27;100.00;101937.63;5032046;28;20538;-84
2023/05/08 02:14:12;;;;;;;21.25;19.38;;;;;;;14.28;100.00;101948.19;5029226;28;20379;-84
2023/05/08 02:16:39;;;;;;;21.25;19.30;;;;;;;14.30;100.00;101951.59;5021489;28;20034;-84
2023/05/08 02:19:07;;;;;;;20.42;18.50;;;;;;;14.30;100.00;101953.44;5019451;28;20026;-84
2023/05/08 02:21:34;;;;;;;21.10;19.20;;;;;;;14.29;100.00;101954.38;5031950;28;20044;-84
2023/05/08 02:24:01;;;;;;;20.95;19.05;;;;;;;14.29;100.00;101954.38;5032177;28;20021;-84
2023/05/08 02:26:27;;;;;;;20.10;18.23;;;;;;;14.27;100.00;101957.16;5032218;28;20033;-84
2023/05/08 02:28:55;;;;;;;21.52;19.52;;;;;;;14.30;100.00;101956.09;5030796;28;20037;-84
2023/05/08 02:31:21;;;;;;;21.55;19.42;;;;;;;14.31;100.00;101961.34;5020330;28;20022;-84
2023/05/08 02:33:48;;;;;;;20.48;18.48;;;;;;;14.29;100.00;101957.94;5029646;28;20518;-84
2023/05/08 02:36:18;;;;;;;20.50;18.63;;;;;;;14.27;100.00;101956.31;5025213;28;20101;-84
2023/05/08 02:38:47;;;;;;;20.65;18.75;;;;;;;14.21;100.00;101953.16;5025459;28;20482;-84
2023/05/08 02:41:14;;;;;;;20.70;18.80;;;;;;;14.26;100.00;101963.50;5029393;28;20080;-84
2023/05/08 02:43:40;;;;;;;21.50;19.50;;;;;;;14.27;100.00;101965.19;5026570;28;20044;-84
2023/05/08 02:46:13;;;;;;;20.60;18.67;;;;;;;14.26;100.00;101963.50;5030680;28;20041;-84
2023/05/08 02:48:56;;;;;;;20.42;18.48;;;;;;;14.25;100.00;101951.97;5031863;28;20029;-84
2023/05/08 02:51:31;;;;;;;20.35;18.45;;;;;;;14.25;100.00;101962.66;5031282;28;20065;-84
2023/05/08 02:54:16;;;;;;;20.65;18.52;;;;;;;14.23;100.00;101951.22;5030704;28;20116;-84
2023/05/08 02:57:05;;;;;;;20.60;18.77;;;;;;;14.23;100.00;101942.34;5032261;28;20030;-84
2023/05/08 02:59:38;;;;;;;20.48;18.25;;;;;;;14.22;100.00;101949.53;5021197;28;20033;-84
2023/05/08 03:02:11;;;;;;;20.30;18.30;;;;;;;14.21;100.00;101949.63;5027224;28;20026;-84
2023/05/08 03:04:45;;;;;;;19.77;17.88;;;;;;;14.22;100.00;101941.50;5016864;28;20030;-84
2023/05/08 03:07:11;;;;;;;20.02;18.17;;;;;;;14.21;100.00;101950.47;5022162;28;20056;-84
2023/05/08 03:09:49;;;;;;;19.55;17.75;;;;;;;14.21;100.00;101947.81;5031332;28;20030;-84
2023/05/08 03:12:20;;;;;;;20.23;18.42;;;;;;;14.18;100.00;101944.50;5029640;28;20026;-84
2023/05/08 03:15:02;;;;;;;20.33;18.38;;;;;;;14.20;100.00;101950.59;5025273;28;20029;-84
2023/05/08 03:17:31;;;;;;;20.70;18.80;;;;;;;14.17;100.00;101945.47;5035433;28;20030;-84
2023/05/08 03:19:59;;;;;;;;;;;;;;;14.28;100.00;101950.88;5034965;28;20025;-83
2023/05/08 03:22:27;;;;;;;20.55;18.52;;;;;;;14.17;100.00;101943.66;5028588;28;19921;-83
2023/05/08 03:24:55;;;;;;;19.60;17.73;;;;;;;14.19;100.00;101949.75;5033312;28;20053;-83
2023/05/08 03:27:21;;;;;;;19.35;17.55;;;;;;;14.16;100.00;101946.44;5034099;28;20048;-83
2023/05/08 03:29:52;;;;;;;20.85;18.95;;;;;;;14.15;100.00;101942.06;5034756;28;20030;-84
2023/05/08 03:32:21;;;;;;;21.33;19.17;;;;;;;14.06;100.00;101941.78;5039080;28;20505;-83
2023/05/08 03:34:48;;;;;;;21.80;19.60;;;;;;;14.10;100.00;101947.75;5030504;28;20472;-83
2023/05/08 03:37:13;;;;;;;20.67;18.85;;;;;;;14.07;100.00;101946.16;5038961;28;20280;-83
2023/05/08 03:39:38;;;;;;;20.58;18.48;;;;;;;14.07;100.00;101945.28;5032981;28;20478;-83
2023/05/08 03:42:04;;;;;;;21.38;19.48;;;;;;;14.05;100.00;101944.56;5048731;28;20033;-83
2023/05/08 03:44:33;;;;;;;21.23;19.15;;;;;;;13.96;100.00;101926.56;5032950;28;20044;-83
2023/05/08 03:46:59;;;;;;;;;;;;;;;14.16;100.00;101941.09;5041153;28;20039;-83
2023/05/08 03:49:25;;;;;;;19.33;17.55;;;;;;;14.02;100.00;101945.66;5033543;28;19976;-83
2023/05/08 03:51:53;;;;;;;22.58;18.77;;;;;;;14.01;100.00;101941.25;5034989;28;20029;-83
2023/05/08 03:54:18;;;;;;;22.30;20.20;;;;;;;13.97;100.00;101944.28;5031995;28;20025;-83
2023/05/08 03:56:44;;;;;;;21.85;19.88;;;;;;;13.94;100.00;101945.38;5037955;28;20052;-83
2023/05/08 03:59:20;;;;;;;21.58;19.48;;;;;;;13.91;100.00;101939.41;5038165;28;20025;-83
2023/05/08 04:01:51;;;;;;;22.35;20.20;;;;;;;13.86;100.00;101945.91;5035278;28;20021;-83
2023/05/08 04:04:23;;;;;;;20.80;18.90;;;;;;;13.85;100.00;101938.84;5041292;28;20028;-83
2023/05/08 04:06:57;;;;;;;21.42;19.40;;;;;;;13.84;100.00;101949.69;5033039;28;20061;-83
2023/05/08 04:09:43;;;;;;;20.98;18.98;;;;;;;13.90;100.00;101953.72;5039144;28;20026;-83
2023/05/08 04:12:25;;;;;;;20.52;18.63;;;;;;;13.83;100.00;101945.28;5033141;28;20029;-83
2023/05/08 04:14:54;;;;;;;21.83;19.65;;;;;;;13.82;100.00;101947.13;5033816;28;20033;-83
2023/05/08 04:17:39;;;;;;;26.23;19.98;;;;;;;13.81;100.00;101949.91;5037851;28;20037;-84
2023/05/08 04:20:07;;;;;;;21.20;19.20;;;;;;;13.73;100.00;101937.09;5040654;28;20053;-84
2023/05/08 04:22:34;;;;;;;22.25;19.92;;;;;;;13.86;100.00;101964.59;5029400;28;20039;-83
2023/05/08 04:25:02;;;;;;;20.83;18.83;;;;;;;13.86;100.00;101956.59;5039776;28;20370;-83
2023/05/08 04:27:28;;;;;;;23.25;19.52;;;;;;;13.83;100.00;101961.31;5038651;28;20380;-84
2023/05/08 04:29:55;;;;;;;20.40;18.45;;;;;;;13.81;100.00;101960.59;5039665;28;20379;-84
2023/05/08 04:32:21;;;;;;;20.45;18.42;;;;;;;13.82;100.00;101956.94;5039813;28;20060;-84
2023/05/08 04:34:47;;;;;;;20.23;18.20;;;;;;;13.83;100.00;101958.63;5034293;28;20042;-84
2023/05/08 04:37:32;;;;;;;19.83;17.83;;;;;;;13.87;100.00;101962.78;5039225;28;20085;-84
2023/05/08 04:39:59;;;;;;;18.00;16.25;;;;;;;13.82;100.00;101956.94;5040132;28;20038;-84
2023/05/08 04:42:27;;;;;;;19.35;17.45;;;;;;;13.81;100.00;101961.41;5040512;28;20040;-84
2023/05/08 04:44:53;;;;;;;21.85;18.08;;;;;;;13.83;100.00;101967.50;5033602;28;20037;-84
2023/05/08 04:47:19;;;;;;;19.52;17.52;;;;;;;13.85;100.00;101970.91;5037180;28;20044;-83
2023/05/08 04:49:45;;;;;;;19.30;17.40;;;;;;;13.86;100.00;101963.75;5050669;28;20040;-83
2023/05/08 04:52:10;;;;;;;20.83;18.90;;;;;;;13.85;100.00;101968.22;5053737;28;20026;-83
2023/05/08 04:54:35;;;;;;;20.75;18.73;;;;;;;13.90;100.00;101983.09;5051618;28;20033;-83
2023/05/08 04:57:01;;;;;;;21.90;19.70;;;;;;;13.90;100.00;101975.06;5034994;28;20301;-83
2023/05/08 04:59:28;;;;;;;23.35;20.98;;;;;;;13.91;100.00;101976.78;5026231;28;20026;-84
2023/05/08 05:01:54;;;;;;;22.88;20.77;;;;;;;13.92;100.00;101979.31;5038251;28;20076;-84
2023/05/08 05:04:21;;;;;;;21.20;18.98;;;;;;;13.93;100.00;101982.88;5037982;28;20419;-84
2023/05/08 05:06:46;;;;;;;21.08;18.98;;;;;;;13.96;100.00;101993.34;5031381;28;20050;-83
2023/05/08 05:09:11;;;;;;;24.20;21.73;;;;;;;14.00;100.00;102001.00;5032050;28;20036;-84
2023/05/08 05:11:36;;;;;;;23.42;21.13;;;;;;;14.01;100.00;101994.69;5037480;28;20038;-84
2023/05/08 05:14:02;;;;;;;24.65;22.35;;;;;;;14.03;100.00;102000.75;5034986;28;20097;-84
2023/05/08 05:16:27;;;;;;;24.98;22.67;;;;;;;14.04;100.00;101999.81;5036926;28;20363;-84
2023/05/08 05:18:52;;;;;;;25.05;22.55;;;;;;;14.03;100.00;101999.94;5036845;28;20057;-84
2023/05/08 05:21:18;;;;;;;25.23;22.80;;;;;;;14.06;100.00;102007.72;5036000;28;20029;-84
2023/05/08 05:23:44;;;;;;;25.65;23.17;;;;;;;14.04;100.00;101996.31;5032141;28;20029;-84
2023/05/08 05:26:09;;;;;;;25.33;22.92;;;;;;;14.07;100.00;102009.41;5030228;28;20039;-84
2023/05/08 05:28:34;;;;;;;26.38;23.95;;;;;;;14.09;100.00;102010.16;5036843;28;20052;-84
2023/05/08 05:31:00;;;;;;;24.35;22.05;;;;;;;14.16;100.00;102013.25;5026291;28;20030;-84
2023/05/08 05:33:25;;;;;;;27.00;24.30;;;;;;;14.14;100.00;102010.69;5036579;28;20021;-84
2023/05/08 05:35:50;;;;;;;24.45;22.13;;;;;;;14.16;100.00;102014.09;5036407;28;20041;-84
2023/05/08 05:38:16;;;;;;;26.40;23.65;;;;;;;14.20;100.00;102012.88;5036197;28;20041;-84
2023/05/08 05:40:41;;;;;;;29.48;26.52;;;;;;;14.25;100.00;102018.78;5036267;28;20036;-84
2023/05/08 05:43:06;;;;;;;28.17;25.33;;;;;;;14.27;100.00;102015.97;5036115;28;20499;-84
2023/05/08 05:45:31;;;;;;;29.83;26.63;;;;;;;14.30;100.00;102025.59;5031393;28;20026;-84
2023/05/08 05:47:57;;;;;;;30.85;27.75;;;;;;;14.33;100.00;102028.03;5031194;28;20311;-84
2023/05/08 05:50:22;;;;;;;32.45;26.45;;;;;;;14.30;100.00;102018.41;5034627;28;20021;-84
2023/05/08 05:52:47;;;;;;;32.58;28.58;;;;;;;14.37;100.00;102025.03;5034037;28;20540;-84
2023/05/08 05:55:13;;;;;;;34.17;30.65;;;;;;;14.36;100.00;102020.63;5035195;28;20037;-84
2023/05/08 05:57:38;;;;;;;33.95;30.65;;;;;;;14.40;100.00;102018.59;5036214;28;20028;-83
2023/05/08 06:00:06;;;;;;;34.33;30.75;;;;;;;14.44;100.00;102026.28;5040595;28;20044;-84
2023/05/08 06:02:32;;;;;;;33.92;30.42;;;;;;;14.45;100.00;102021.78;5036444;28;20108;-84
2023/05/08 06:04:58;;;;;;;32.78;29.27;;;;;;;14.51;100.00;102031.19;5022608;28;20022;-84
2023/05/08 06:07:24;;;;;;;35.05;31.20;;;;;;;14.53;100.00;102027.41;5037508;28;20068;-84
2023/05/08 06:09:50;;;;;;;34.67;30.98;;;;;;;14.54;100.00;102022.94;5037754;28;20419;-84
2023/05/08 06:12:17;;;;;;;34.63;30.98;;;;;;;14.54;100.00;102026.44;5030738;28;20073;-84
2023/05/08 06:14:42;;;;;;;34.45;30.90;;;;;;;14.53;100.00;102019.38;5033759;28;20029;-84
2023/05/08 06:17:07;;;;;;;36.75;33.08;;;;;;;14.57;100.00;102020.88;5033311;28;20056;-84
2023/05/08 06:19:32;;;;;;;37.33;33.35;;;;;;;14.59;100.00;102026.16;5034783;28;20029;-84
2023/05/08 06:21:58;;;;;;;36.58;32.88;;;;;;;14.61;100.00;102024.19;5040480;28;20549;-85
2023/05/08 06:24:23;;;;;;;36.95;33.13;;;;;;;14.68;100.00;102027.25;5037404;28;20041;-84
2023/05/08 06:26:48;;;;;;;37.85;33.75;;;;;;;14.66;100.00;102022.03;5028169;28;20514;-85
2023/05/08 06:29:14;;;;;;;38.28;34.38;;;;;;;14.69;100.00;102028.94;5033393;28;20021;-84
2023/05/08 06:31:39;;;;;;;41.08;36.72;;;;;;;14.69;100.00;102020.94;5033730;28;20044;-84
2023/05/08 06:34:04;;;;;;;41.10;36.58;;;;;;;14.73;100.00;102028.63;5032436;28;20064;-84
2023/05/08 06:36:30;;;;;;;41.83;36.45;;;;;;;14.77;100.00;102027.44;5036144;28;20087;-84
2023/05/08 06:38:56;;;;;;;42.53;38.00;;;;;;;14.79;100.00;102030.84;5034286;28;20029;-84
2023/05/08 06:41:22;;;;;;;42.90;37.97;;;;;;;14.89;100.00;102031.00;5032959;28;20048;-84
2023/05/08 06:43:47;;;;;;;43.10;38.20;;;;;;;14.93;100.00;102028.94;5031759;28;20057;-84
2023/05/08 06:46:12;;;;;;;41.88;37.42;;;;;;;14.98;100.00;102034.78;5029437;28;20483;-84
2023/05/08 06:48:37;;;;;;;42.72;38.13;;;;;;;14.99;100.00;102034.66;5027598;28;20042;-84
2023/05/08 06:51:03;;;;;;;41.95;37.40;;;;;;;15.05;100.00;102041.34;5035332;28;20025;-84
2023/05/08 06:53:29;;;;;;;43.42;38.83;;;;;;;15.09;100.00;102047.34;5034856;28;20068;-84
2023/05/08 06:55:56;;;;;;;44.05;39.58;;;;;;;15.12;100.00;102037.25;5037573;28;20478;-83
2023/05/08 06:58:21;;;;;;;45.35;40.53;;;;;;;15.18;100.00;102051.97;5037882;28;20045;-83
2023/05/08 07:00:47;;;;;;;46.78;41.90;;;;;;;15.19;100.00;102059.06;5039576;28;20025;-83
2023/05/08 07:03:12;;;;;;;45.55;40.88;;;;;;;15.18;100.00;102057.34;5038929;28;20481;-84
2023/05/08 07:05:37;;;;;;;46.58;40.95;;;;;;;15.21;100.00;102051.75;5035555;28;20033;-84
2023/05/08 07:08:03;;;;;;;45.40;40.63;;;;;;;15.20;100.00;102058.06;5035727;28;20057;-85
2023/05/08 07:10:28;;;;;;;46.00;41.20;;;;;;;15.25;100.00;102057.72;5023859;28;20052;-84
2023/05/08 07:12:53;;;;;;;45.78;40.83;;;;;;;15.20;100.00;102055.38;5034245;28;20391;-84
2023/05/08 07:15:19;;;;;;;46.70;40.85;;;;;;;15.25;100.00;102058.56;5032296;28;20724;-85
2023/05/08 07:17:44;;;;;;;45.63;41.03;;;;;;;15.25;100.00;102055.88;5034975;28;20104;-85
2023/05/08 07:20:10;;;;;;;42.67;37.92;;;;;;;15.25;100.00;102049.69;5035180;28;20018;-85
2023/05/08 07:22:35;;;;;;;44.90;40.10;;;;;;;15.31;100.00;102054.56;5035093;28;20192;-85
2023/05/08 07:25:01;;;;;;;44.72;40.03;;;;;;;15.35;100.00;102056.91;5028433;28;20025;-85
2023/05/08 07:27:26;;;;;;;43.95;39.22;;;;;;;15.38;100.00;102052.28;5035363;28;20033;-85
2023/05/08 07:29:51;;;;;;;41.60;37.15;;;;;;;15.41;100.00;102055.56;5037635;28;20132;-85
2023/05/08 07:32:16;;;;;;;42.65;38.08;;;;;;;15.47;100.00;102059.56;5031581;28;20505;-85
2023/05/08 07:34:42;;;;;;;40.33;36.03;;;;;;;15.48;100.00;102056.78;5037385;28;20079;-84
2023/05/08 07:37:07;;;;;;;42.60;37.08;;;;;;;15.53;100.00;102059.09;5026122;28;20038;-85
2023/05/08 07:39:33;;;;;;;38.72;34.92;;;;;;;15.56;100.00;102056.19;5031568;28;20057;-85
2023/05/08 07:41:58;;;;;;;39.53;35.50;;;;;;;15.57;100.00;102049.88;5033467;28;20033;-84
2023/05/08 07:44:23;;;;;;;36.45;32.72;;;;;;;15.64;100.00;102052.91;5033178;28;20426;-84
2023/05/08 07:46:49;;;;;;;37.47;33.88;;;;;;;15.66;100.00;102042.94;5033353;28;20112;-86
2023/05/08 07:49:15;;;;;;;36.90;33.30;;;;;;;15.77;100.00;102055.47;5033374;28;20029;-85
2023/05/08 07:51:41;;;;;;;37.65;33.85;;;;;;;15.75;100.00;102039.50;5035066;28;20043;-84
2023/05/08 07:54:06;;;;;;;37.67;33.97;;;;;;;15.89;100.00;102046.50;5034564;28;20045;-85
2023/05/08 07:56:31;;;;;;;38.20;34.30;;;;;;;15.97;100.00;102048.53;5032511;28;20095;-85
2023/05/08 07:58:56;;;;;;;38.83;34.95;;;;;;;16.06;100.00;102043.28;5035258;28;20040;-85
2023/05/08 08:01:22;;;;;;;36.90;33.17;;;;;;;16.14;100.00;102053.41;5043112;28;20029;-84
2023/05/08 08:03:47;;;;;;;37.97;34.17;;;;;;;16.24;100.00;102053.50;5035010;28;20300;-84
2023/05/08 08:06:13;;;;;;;37.65;34.00;;;;;;;16.30;100.00;102049.47;5035553;28;20022;-85
2023/05/08 08:08:38;;;;;;;38.53;34.50;;;;;;;16.38;100.00;102047.84;5040206;28;20049;-84
2023/05/08 08:11:04;;;;;;;37.55;33.83;;;;;;;16.53;100.00;102056.47;5035444;28;20021;-84
2023/05/08 08:13:30;;;;;;;37.60;33.92;;;;;;;16.58;100.00;102058.75;5024240;28;20038;-85
2023/05/08 08:15:56;;;;;;;35.20;31.77;;;;;;;16.69;100.00;102056.03;5028280;28;20033;-84
2023/05/08 08:18:21;;;;;;;35.22;31.77;;;;;;;16.76;100.00;102062.59;5030865;28;20365;-84
2023/05/08 08:20:46;;;;;;;34.78;31.48;;;;;;;16.87;100.00;102063.56;5031244;28;20040;-84
2023/05/08 08:23:12;;;;;;;33.28;30.10;;;;;;;16.91;100.00;102055.13;5035395;28;20123;-84
2023/05/08 08:25:37;;;;;;;32.30;29.20;;;;;;;17.08;100.00;102059.06;5033621;28;20034;-84
2023/05/08 08:28:02;;;;;;;31.77;28.88;;;;;;;17.18;100.00;102051.91;5034168;28;20046;-85
2023/05/08 08:30:28;;;;;;;30.38;27.48;;;;;;;17.24;100.00;102055.91;5034516;28;20026;-85
2023/05/08 08:32:53;;;;;;;29.13;26.17;;;;;;;17.34;100.00;102058.66;5034782;28;20041;-85
2023/05/08 08:35:18;;;;;;;29.27;26.38;;;;;;;17.48;100.00;102052.09;5037060;28;20099;-84
2023/05/08 08:37:44;;;;;;;29.70;26.85;;;;;;;17.60;100.00;102053.69;5034502;28;20039;-84
2023/05/08 08:40:09;;;;;;;29.98;26.98;;;;;;;17.86;100.00;102047.88;5039561;28;20399;-85
2023/05/08 08:42:35;;;;;;;28.38;25.55;;;;;;;18.07;100.00;102045.16;5035042;28;20065;-84
2023/05/08 08:45:00;;;;;;;30.55;27.60;;;;;;;18.21;100.00;102042.06;5034045;28;20025;-84
2023/05/08 08:47:36;;;;;;;30.83;27.80;;;;;;;18.38;100.00;102045.06;5038140;28;20029;-84
2023/05/08 08:50:02;;;;;;;29.67;26.85;;;;;;;18.62;99.20;102048.22;5042178;28;20478;-84
2023/05/08 08:53:06;;;;;;;29.60;26.88;;;;;;;18.85;100.00;102045.25;5043641;28;20025;-85
2023/05/08 08:55:32;;;;;;;30.50;27.52;;;;;;;18.85;97.31;102043.44;5007322;28;20467;-84
2023/05/08 08:58:21;;;;;;;29.90;27.13;;;;;;;18.86;99.60;102042.41;5036456;28;20037;-85
2023/05/08 09:00:48;;;;;;;31.60;28.52;;;;;;;18.91;97.77;102046.53;5046222;28;20105;-84
2023/05/08 09:03:14;;;;;;;31.20;28.10;;;;;;;18.91;95.22;102043.84;5051353;28;20017;-84
2023/05/08 09:05:39;;;;;;;33.58;30.38;;;;;;;18.95;97.47;102054.19;5042920;28;20064;-85
2023/05/08 09:08:06;;;;;;;32.88;29.77;;;;;;;18.91;95.35;102050.06;5052546;28;20052;-85
2023/05/08 09:10:31;;;;;;;33.70;30.40;;;;;;;19.00;97.26;102061.81;5049924;28;20025;-85
2023/05/08 09:12:57;;;;;;;33.17;30.13;;;;;;;18.91;95.31;102062.69;5045963;28;20036;-85
2023/05/08 09:15:22;;;;;;;33.67;30.35;;;;;;;18.89;96.80;102054.75;5045382;28;20052;-85
2023/05/08 09:17:47;;;;;;;32.50;29.40;;;;;;;18.86;95.09;102057.72;5047110;28;20034;-85
2023/05/08 09:20:15;;;;;;;33.00;29.73;;;;;;;18.96;95.25;102061.25;5051552;28;20042;-88
2023/05/08 09:22:41;;;;;;;33.55;30.20;;;;;;;18.85;95.80;102040.75;5044453;28;20029;-87
2023/05/08 09:25:07;;;;;;;34.25;30.77;;;;;;;18.94;95.73;102055.19;5041345;28;20018;-87
2023/05/08 09:27:34;;;;;;;33.80;30.50;;;;;;;18.99;97.36;102041.28;5022678;28;20036;-88
2023/05/08 09:30:01;;;;;;;34.53;31.10;;;;;;;18.96;95.86;102041.56;5035838;28;20029;-88
2023/05/08 09:32:27;;;;;;;34.45;30.90;;;;;;;19.02;96.48;102051.78;5042505;28;20034;-87
2023/05/08 09:34:53;;;;;;;38.80;34.78;;;;;;;18.87;97.02;102051.38;5050068;28;20033;-88
2023/05/08 09:37:18;;;;;;;39.42;35.28;;;;;;;18.81;97.11;102041.97;5053611;28;20080;-88
2023/05/08 09:39:46;;;;;;;40.70;36.17;;;;;;;18.91;96.62;102060.00;5052759;28;20033;-87
2023/05/08 09:42:14;;;;;;;41.25;36.85;;;;;;;18.81;96.40;102046.50;5039698;28;20034;-88
2023/05/08 09:44:51;;;;;;;42.05;37.67;;;;;;;18.88;96.92;102058.44;5051984;28;20106;-88
2023/05/08 09:47:18;;;;;;;42.25;37.83;;;;;;;18.81;96.21;102055.44;5051269;28;20036;-88
2023/05/08 09:50:07;;;;;;;40.17;35.88;;;;;;;18.87;97.54;102054.06;5056035;28;20048;-88
2023/05/08 09:52:46;;;;;;;40.63;36.40;;;;;;;18.82;96.56;102053.59;5050915;28;20033;-87
2023/05/08 09:55:11;;;;;;;42.30;37.92;;;;;;;18.74;95.52;102054.31;5042852;28;20065;-87
2023/05/08 09:57:39;;;;;;;41.13;36.60;;;;;;;18.73;94.87;102057.97;5033896;28;20033;-88
2023/05/08 10:00:12;;;;;;;42.28;37.75;;;;;;;18.83;97.32;102052.63;5054617;28;20057;-88
2023/05/08 10:02:40;;;;;;;43.10;36.53;;;;;;;18.81;96.49;102062.66;5054451;28;20048;-88
2023/05/08 10:05:33;;;;;;;42.95;38.25;;;;;;;18.86;96.29;102052.34;5054946;28;20036;-83
2023/05/08 10:08:17;;;;;;;40.75;36.40;;;;;;;18.94;96.51;102057.03;5038025;28;20057;-84
2023/05/08 10:10:42;;;;;;;46.25;37.53;;;;;;;18.87;96.90;102051.38;5036007;28;20048;-83
2023/05/08 10:13:08;;;;;;;44.72;39.33;;;;;;;18.85;95.52;102059.59;5026957;28;20037;-83
2023/05/08 10:15:36;;;;;;;48.47;40.72;;;;;;;18.78;96.20;102063.78;5039765;28;20123;-83
2023/05/08 10:18:04;;;;;;;49.70;41.40;;;;;;;18.79;96.47;102061.97;5038751;28;20088;-83
2023/05/08 10:20:31;;;;;;;46.47;40.90;;;;;;;18.96;97.78;102061.25;5039309;28;20067;-83
2023/05/08 10:22:57;;;;;;;45.72;40.53;;;;;;;19.02;95.29;102063.38;5037622;28;20025;-83
2023/05/08 10:25:23;;;;;;;46.38;40.95;;;;;;;18.96;94.74;102055.88;5040063;28;20048;-83
2023/05/08 10:27:49;;;;;;;46.20;41.03;;;;;;;18.96;96.80;102061.25;5036121;28;20098;-83
2023/05/08 10:30:16;;;;;;;47.00;41.30;;;;;;;19.09;95.03;102068.22;5039310;28;20033;-83
2023/05/08 10:32:43;;;;;;;50.63;39.45;;;;;;;18.99;93.02;102063.66;5037936;28;20045;-83
2023/05/08 10:35:10;;;;;;;44.60;38.28;;;;;;;19.07;93.27;102071.03;5040581;28;20116;-83
2023/05/08 10:37:38;;;;;;;47.22;39.17;;;;;;;19.18;94.05;102064.63;5047470;28;20151;-83
2023/05/08 10:40:04;;;;;;;43.35;38.80;;;;;;;19.12;94.55;102057.13;5039140;28;20033;-83
2023/05/08 10:42:30;;;;;;;45.20;40.22;;;;;;;19.07;93.89;102059.41;5033833;28;20030;-83
2023/05/08 10:44:56;;;;;;;47.53;42.25;;;;;;;19.06;94.23;102063.09;5038822;28;20120;-83
2023/05/08 10:47:30;;;;;;;51.90;43.78;;;;;;;18.96;93.42;102061.25;5036878;28;20033;-83
2023/05/08 10:50:21;;;;;;;49.33;42.97;;;;;;;19.01;96.18;102060.84;5037614;28;20113;-83
2023/05/08 10:52:53;;;;;;;51.58;41.10;;;;;;;18.94;92.26;102062.41;5041957;28;20021;-83
2023/05/08 10:55:32;;;;;;;47.40;41.55;;;;;;;18.98;95.37;102058.44;5032385;28;20049;-84
2023/05/08 10:58:02;;;;;;;46.80;41.30;;;;;;;18.92;92.13;102056.28;5034600;28;20038;-84
2023/05/08 11:00:52;;;;;;;50.28;41.33;;;;;;;19.03;93.08;102053.47;5036433;28;20095;-83
2023/05/08 11:03:26;;;;;;;47.65;42.40;;;;;;;19.02;94.05;102047.22;5039560;28;20017;-83
2023/05/08 11:05:52;;;;;;;47.63;41.78;;;;;;;19.07;92.36;102056.72;5037259;28;20046;-83
2023/05/08 11:08:23;;;;;;;52.90;42.38;;;;;;;19.13;91.43;102048.91;5040053;28;20053;-83
2023/05/08 11:11:00;;;;;;;48.30;41.47;;;;;;;19.26;90.79;102048.59;5036346;28;20061;-83